createdAt,value
2023-05-15T00:00:41.808Z,5.25
2023-05-15T00:03:55.927Z,6.72
2023-05-15T00:06:43.938Z,6.53
2023-05-15T00:09:31.308Z,6.15
2023-05-15T00:12:20.250Z,6.18
2023-05-15T00:15:09.724Z,6.75
2023-05-15T00:17:57.368Z,6.30
2023-05-15T00:20:45.340Z,6.55
2023-05-15T00:23:32.865Z,6.38
2023-05-15T00:26:20.831Z,6.70
2023-05-15T00:29:10.015Z,7.25
2023-05-15T00:31:57.964Z,6.72
2023-05-15T00:34:45.432Z,6.68
2023-05-15T00:37:32.931Z,7.30
2023-05-15T00:40:24.974Z,6.90
2023-05-15T00:43:13.800Z,7.22
2023-05-15T00:46:03.753Z,6.97
2023-05-15T00:48:52.124Z,6.53
2023-05-15T00:51:41.480Z,7.35
2023-05-15T00:54:29.449Z,7.43
2023-05-15T00:57:19.154Z,7.15
2023-05-15T01:00:10.503Z,6.70
2023-05-15T01:03:01.937Z,6.18
2023-05-15T01:05:49.714Z,6.38
2023-05-15T01:08:46.747Z,6.25
2023-05-15T01:11:38.886Z,6.10
2023-05-15T01:14:27.255Z,6.20
2023-05-15T01:17:14.940Z,6.03
2023-05-15T01:20:10.552Z,6.03
2023-05-15T01:23:13.411Z,6.40
2023-05-15T01:26:43.470Z,6.13
2023-05-15T01:29:42.428Z,5.68
2023-05-15T01:32:42.424Z,5.90
2023-05-15T01:35:40.083Z,6.10
2023-05-15T01:38:37.884Z,6.25
2023-05-15T01:41:32.791Z,6.60
2023-05-15T01:44:29.111Z,6.80
2023-05-15T01:47:27.736Z,6.35
2023-05-15T01:50:20.449Z,5.93
2023-05-15T01:53:18.360Z,6.35
2023-05-15T01:56:11.391Z,6.25
2023-05-15T01:59:01.332Z,6.20
2023-05-15T02:01:50.695Z,7.88
2023-05-15T02:04:42.169Z,6.70
2023-05-15T02:07:30.178Z,6.80
2023-05-15T02:10:28.166Z,6.38
2023-05-15T02:13:19.575Z,6.18
2023-05-15T02:16:08.076Z,7.68
2023-05-15T02:18:56.461Z,6.20
2023-05-15T02:21:45.209Z,7.07
2023-05-15T02:24:32.692Z,6.65
2023-05-15T02:27:26.344Z,6.13
2023-05-15T02:30:35.958Z,7.18
2023-05-15T02:33:36.540Z,7.60
2023-05-15T02:36:35.321Z,6.47
2023-05-15T02:39:25.109Z,6.90
2023-05-15T02:42:15.992Z,7.45
2023-05-15T02:45:06.805Z,7.15
2023-05-15T02:47:55.567Z,8.48
2023-05-15T02:50:44.384Z,7.40
2023-05-15T02:53:33.612Z,7.85
2023-05-15T02:56:22.425Z,7.53
2023-05-15T02:59:10.007Z,7.00
2023-05-15T03:01:57.570Z,6.97
2023-05-15T03:04:44.944Z,6.90
2023-05-15T03:07:32.412Z,6.95
2023-05-15T03:10:21.250Z,6.55
2023-05-15T03:13:10.767Z,7.50
2023-05-15T03:15:58.264Z,7.55
2023-05-15T03:18:46.208Z,7.32
2023-05-15T03:21:34.983Z,7.43
2023-05-15T03:24:24.948Z,7.78
2023-05-15T03:27:12.724Z,9.05
2023-05-15T03:30:01.887Z,9.23
2023-05-15T03:32:49.469Z,9.38
2023-05-15T03:35:37.134Z,8.75
2023-05-15T03:38:24.745Z,8.20
2023-05-15T03:41:12.643Z,7.28
2023-05-15T03:44:00.211Z,6.90
2023-05-15T03:46:49.319Z,6.07
2023-05-15T03:49:36.968Z,6.47
2023-05-15T03:52:24.322Z,6.00
2023-05-15T03:55:12.173Z,6.18
2023-05-15T03:58:00.117Z,5.93
2023-05-15T04:00:47.593Z,6.05
2023-05-15T04:03:36.339Z,6.38
2023-05-15T04:06:23.813Z,7.85
2023-05-15T04:09:11.519Z,5.90
2023-05-15T04:11:59.371Z,6.40
2023-05-15T04:14:47.729Z,6.43
2023-05-15T04:17:35.266Z,5.93
2023-05-15T04:20:26.112Z,6.22
2023-05-15T04:23:13.659Z,5.82
2023-05-15T04:26:01.460Z,5.40
2023-05-15T04:29:00.267Z,5.80
2023-05-15T04:31:51.308Z,5.65
2023-05-15T04:34:38.879Z,6.88
2023-05-15T04:37:27.749Z,7.20
2023-05-15T04:40:16.549Z,6.72
2023-05-15T04:43:05.894Z,6.03
2023-05-15T04:45:54.151Z,5.93
2023-05-15T04:48:41.667Z,5.60
2023-05-15T04:51:29.242Z,5.60
2023-05-15T04:54:17.968Z,5.68
2023-05-15T04:57:06.609Z,6.00
2023-05-15T04:59:54.493Z,8.95
2023-05-15T05:02:43.246Z,6.15
2023-05-15T05:05:30.880Z,8.05
2023-05-15T05:08:18.443Z,9.40
2023-05-15T05:11:07.269Z,6.80
2023-05-15T05:13:55.083Z,6.35
2023-05-15T05:16:43.137Z,7.43
2023-05-15T05:19:30.965Z,7.38
2023-05-15T05:22:18.691Z,6.50
2023-05-15T05:25:07.615Z,9.38
2023-05-15T05:27:59.650Z,6.45
2023-05-15T05:30:47.796Z,7.88
2023-05-15T05:33:35.628Z,8.23
2023-05-15T05:36:23.301Z,17.63
2023-05-15T05:39:10.864Z,12.45
2023-05-15T05:41:58.372Z,7.35
2023-05-15T05:44:47.148Z,7.05
2023-05-15T05:47:35.477Z,8.52
2023-05-15T05:50:23.218Z,11.25
2023-05-15T05:53:10.878Z,9.18
2023-05-15T05:55:58.863Z,9.07
2023-05-15T05:58:46.842Z,9.30
2023-05-15T06:01:36.275Z,8.68
2023-05-15T06:04:23.836Z,7.30
2023-05-15T06:07:12.246Z,10.63
2023-05-15T06:09:59.827Z,10.15
2023-05-15T06:12:47.718Z,8.73
2023-05-15T06:15:35.223Z,10.18
2023-05-15T06:18:24.433Z,8.27
2023-05-15T06:21:11.799Z,9.02
2023-05-15T06:24:00.300Z,8.07
2023-05-15T06:26:49.265Z,9.18
2023-05-15T06:29:37.803Z,11.40
2023-05-15T06:32:25.566Z,10.18
2023-05-15T06:35:14.756Z,9.43
2023-05-15T06:38:02.464Z,8.48
2023-05-15T06:40:49.972Z,8.75
2023-05-15T06:43:38.570Z,10.02
2023-05-15T06:46:26.318Z,7.82
2023-05-15T06:49:13.962Z,10.85
2023-05-15T06:52:02.874Z,8.23
2023-05-15T06:54:50.627Z,7.63
2023-05-15T06:57:38.295Z,8.55
2023-05-15T07:00:26.101Z,7.35
2023-05-15T07:03:39.825Z,9.43
2023-05-15T07:06:28.084Z,8.35
2023-05-15T07:09:17.011Z,6.63
2023-05-15T07:12:05.546Z,8.27
2023-05-15T07:14:53.245Z,16.02
2023-05-15T07:17:40.905Z,10.25
2023-05-15T07:20:30.812Z,6.97
2023-05-15T07:23:19.947Z,6.95
2023-05-15T07:26:14.037Z,7.82
2023-05-15T07:29:04.997Z,7.28
2023-05-15T07:31:52.583Z,6.13
2023-05-15T07:34:40.304Z,6.38
2023-05-15T07:37:27.936Z,6.70
2023-05-15T07:40:15.686Z,5.95
2023-05-15T07:43:04.763Z,9.55
2023-05-15T07:45:52.756Z,12.10
2023-05-15T07:48:40.606Z,6.05
2023-05-15T07:51:28.799Z,4.93
2023-05-15T07:54:16.303Z,5.43
2023-05-15T07:57:03.892Z,6.32
2023-05-15T07:59:52.697Z,5.00
2023-05-15T08:02:40.694Z,4.88
2023-05-15T08:05:28.909Z,4.45
2023-05-15T08:08:17.050Z,4.13
2023-05-15T08:11:04.961Z,4.55
2023-05-15T08:13:52.607Z,6.70
2023-05-15T08:16:41.405Z,7.47
2023-05-15T08:19:29.287Z,7.40
2023-05-15T08:22:17.612Z,5.43
2023-05-15T08:25:07.016Z,4.38
2023-05-15T08:27:54.348Z,4.18
2023-05-15T08:30:41.894Z,4.68
2023-05-15T08:33:31.014Z,6.18
2023-05-15T08:36:19.787Z,8.40
2023-05-15T08:39:09.368Z,12.75
2023-05-15T08:42:04.388Z,11.45
2023-05-15T08:44:52.293Z,8.50
2023-05-15T08:47:42.051Z,8.05
2023-05-15T08:50:31.734Z,6.75
2023-05-15T08:53:20.282Z,6.13
2023-05-15T08:56:08.396Z,7.93
2023-05-15T08:58:56.283Z,12.00
2023-05-15T09:01:44.338Z,8.57
2023-05-15T09:04:31.899Z,8.98
2023-05-15T09:07:21.997Z,6.78
2023-05-15T09:10:11.394Z,6.68
2023-05-15T09:13:02.635Z,7.47
2023-05-15T09:15:50.714Z,7.05
2023-05-15T09:18:40.091Z,5.72
2023-05-15T09:21:31.216Z,6.38
2023-05-15T09:24:24.540Z,5.97
2023-05-15T09:27:12.528Z,6.20
2023-05-15T09:30:11.032Z,5.10
2023-05-15T09:33:03.423Z,5.72
2023-05-15T09:35:51.321Z,7.32
2023-05-15T09:38:43.607Z,6.30
2023-05-15T09:41:32.652Z,9.98
2023-05-15T09:44:25.760Z,8.13
2023-05-15T09:47:16.872Z,6.68
2023-05-15T09:50:04.898Z,10.85
2023-05-15T09:52:53.053Z,6.45
2023-05-15T09:55:45.199Z,8.27
2023-05-15T09:58:37.115Z,8.50
2023-05-15T10:01:26.147Z,10.88
2023-05-15T10:04:15.409Z,13.18
2023-05-15T10:07:02.838Z,7.15
2023-05-15T10:09:50.610Z,5.05
2023-05-15T10:12:38.838Z,5.45
2023-05-15T10:15:28.798Z,4.68
2023-05-15T10:18:19.795Z,5.38
2023-05-15T10:21:08.944Z,5.05
2023-05-15T10:24:00.657Z,4.18
2023-05-15T10:26:50.171Z,4.13
2023-05-15T10:29:39.443Z,4.15
2023-05-15T10:32:29.100Z,4.70
2023-05-15T10:35:17.849Z,5.13
2023-05-15T10:38:07.622Z,4.68
2023-05-15T10:41:13.066Z,3.72
2023-05-15T10:44:04.506Z,4.15
2023-05-15T10:46:53.262Z,5.32
2023-05-15T10:49:42.200Z,4.97
2023-05-15T10:52:32.396Z,4.65
2023-05-15T10:55:23.189Z,5.00
2023-05-15T10:58:11.398Z,6.13
2023-05-15T11:00:59.073Z,7.32
2023-05-15T11:03:49.702Z,8.40
2023-05-15T11:06:42.140Z,7.85
2023-05-15T11:09:40.190Z,6.70
2023-05-15T11:12:58.564Z,6.40
2023-05-15T11:15:48.006Z,6.07
2023-05-15T11:18:38.798Z,8.57
2023-05-15T11:21:32.548Z,7.93
2023-05-15T11:24:22.348Z,7.18
2023-05-15T11:27:14.248Z,6.18
2023-05-15T11:30:11.477Z,4.95
2023-05-15T11:33:02.034Z,5.20
2023-05-15T11:35:50.090Z,5.93
2023-05-15T11:38:41.308Z,8.70
2023-05-15T11:41:33.946Z,5.28
2023-05-15T11:44:23.711Z,5.05
2023-05-15T11:47:12.389Z,4.72
2023-05-15T11:50:00.924Z,9.27
2023-05-15T11:52:50.464Z,6.53
2023-05-15T11:55:40.512Z,6.28
2023-05-15T11:58:29.807Z,5.22
2023-05-15T12:01:17.838Z,9.32
2023-05-15T12:04:14.954Z,7.40
2023-05-15T12:07:04.105Z,8.13
2023-05-15T12:09:53.532Z,10.02
2023-05-15T12:12:42.383Z,5.65
2023-05-15T12:15:31.343Z,7.85
2023-05-15T12:18:19.132Z,6.00
2023-05-15T12:21:07.061Z,5.95
2023-05-15T12:26:46.940Z,5.82
2023-05-15T12:29:34.916Z,5.80
2023-05-15T12:32:24.044Z,4.28
2023-05-15T12:35:13.011Z,4.35
2023-05-15T12:38:03.128Z,6.07
2023-05-15T12:40:54.642Z,3.83
2023-05-15T12:43:42.617Z,4.22
2023-05-15T12:46:32.478Z,4.32
2023-05-15T12:49:24.992Z,4.53
2023-05-15T12:52:13.753Z,6.07
2023-05-15T12:55:02.124Z,6.07
2023-05-15T12:57:50.557Z,5.40
2023-05-15T13:00:42.007Z,6.65
2023-05-15T13:03:31.953Z,4.70
2023-05-15T13:06:23.988Z,5.65
2023-05-15T13:09:12.539Z,4.95
2023-05-15T13:12:03.653Z,5.60
2023-05-15T13:14:51.682Z,5.93
2023-05-15T13:17:42.373Z,5.30
2023-05-15T13:20:33.119Z,4.43
2023-05-15T13:23:24.922Z,4.72
2023-05-15T13:26:12.466Z,6.95
2023-05-15T13:29:01.574Z,4.60
2023-05-15T13:31:49.387Z,7.78
2023-05-15T13:34:36.897Z,6.15
2023-05-15T13:37:24.354Z,4.97
2023-05-15T13:40:14.548Z,4.85
2023-05-15T13:43:02.037Z,6.75
2023-05-15T13:45:49.423Z,6.13
2023-05-15T13:48:36.943Z,9.35
2023-05-15T13:51:26.858Z,6.20
2023-05-15T13:54:14.231Z,5.40
2023-05-15T13:57:03.480Z,6.70
2023-05-15T13:59:51.206Z,4.82
2023-05-15T14:02:39.025Z,5.40
2023-05-15T14:05:27.118Z,6.43
2023-05-15T14:08:15.472Z,5.78
2023-05-15T14:11:03.460Z,8.43
2023-05-15T14:13:52.552Z,6.95
2023-05-15T14:16:40.180Z,7.30
2023-05-15T14:19:28.424Z,5.68
2023-05-15T14:22:16.354Z,6.18
2023-05-15T14:25:04.486Z,5.60
2023-05-15T14:27:52.438Z,6.50
2023-05-15T14:30:41.491Z,5.38
2023-05-15T14:33:28.992Z,5.10
2023-05-15T14:36:16.662Z,5.95
2023-05-15T14:39:04.446Z,5.78
2023-05-15T14:41:51.945Z,5.32
2023-05-15T14:44:39.738Z,6.45
2023-05-15T14:47:30.039Z,5.95
2023-05-15T14:50:17.968Z,3.72
2023-05-15T14:53:05.588Z,7.88
2023-05-15T14:55:53.038Z,5.13
2023-05-15T14:58:45.568Z,7.13
2023-05-15T15:01:33.351Z,6.35
2023-05-15T15:04:22.660Z,7.53
2023-05-15T15:07:12.878Z,5.18
2023-05-15T15:10:00.814Z,4.60
2023-05-15T15:12:48.246Z,6.47
2023-05-15T15:15:36.229Z,4.70
2023-05-15T15:18:24.052Z,5.65
2023-05-15T15:21:13.862Z,8.40
2023-05-15T15:24:03.712Z,6.78
2023-05-15T15:26:51.400Z,5.82
2023-05-15T15:29:39.457Z,8.27
2023-05-15T15:32:35.136Z,8.88
2023-05-15T15:35:23.291Z,5.95
2023-05-15T15:38:13.285Z,5.40
2023-05-15T15:41:03.612Z,6.00
2023-05-15T15:43:51.486Z,4.28
2023-05-15T15:46:39.051Z,6.18
2023-05-15T15:49:26.700Z,5.25
2023-05-15T15:52:14.087Z,7.65
2023-05-15T15:55:03.073Z,9.95
2023-05-15T15:57:50.775Z,8.90
2023-05-15T16:00:38.934Z,9.88
2023-05-15T16:03:27.061Z,8.35
2023-05-15T16:06:14.882Z,8.20
2023-05-15T16:09:02.886Z,6.47
2023-05-15T16:11:52.180Z,7.00
2023-05-15T16:14:40.040Z,9.63
2023-05-15T16:17:27.427Z,8.25
2023-05-15T16:20:15.224Z,8.20
2023-05-15T16:23:02.932Z,7.38
2023-05-15T16:25:50.788Z,6.15
2023-05-15T16:28:40.042Z,4.75
2023-05-15T16:31:30.458Z,5.95
2023-05-15T16:34:18.158Z,6.20
2023-05-15T16:37:06.338Z,6.85
2023-05-15T16:39:56.859Z,5.68
2023-05-15T16:42:44.801Z,5.78
2023-05-15T16:45:33.903Z,5.18
2023-05-15T16:48:26.282Z,4.93
2023-05-15T16:51:14.980Z,5.72
2023-05-15T16:54:02.693Z,5.50
2023-05-15T16:56:50.349Z,4.85
2023-05-15T16:59:37.697Z,4.97
2023-05-15T17:02:26.510Z,5.32
2023-05-15T17:05:15.155Z,4.57
2023-05-15T17:08:02.960Z,4.70
2023-05-15T17:10:50.981Z,4.15
2023-05-15T17:13:38.371Z,4.90
2023-05-15T17:16:26.064Z,4.63
2023-05-15T17:19:15.057Z,5.18
2023-05-15T17:22:02.949Z,4.47
2023-05-15T17:24:52.834Z,5.55
2023-05-15T17:27:41.503Z,5.35
2023-05-15T17:30:29.456Z,6.70
2023-05-15T17:33:17.082Z,6.63
2023-05-15T17:36:06.413Z,7.30
2023-05-15T17:38:54.338Z,7.28
2023-05-15T17:41:42.617Z,5.53
2023-05-15T17:44:31.338Z,6.35
2023-05-15T17:47:19.103Z,6.72
2023-05-15T17:50:08.483Z,6.32
2023-05-15T17:52:57.486Z,5.88
2023-05-15T17:55:45.441Z,4.75
2023-05-15T17:58:32.921Z,4.70
2023-05-15T18:01:21.073Z,5.53
2023-05-15T18:04:09.171Z,10.30
2023-05-15T18:06:56.869Z,5.80
2023-05-15T18:09:46.129Z,7.68
2023-05-15T18:12:35.251Z,5.15
2023-05-15T18:15:23.010Z,3.95
2023-05-15T18:18:10.993Z,4.00
2023-05-15T18:20:59.049Z,3.17
2023-05-15T18:23:47.194Z,4.85
2023-05-15T18:26:36.225Z,6.60
2023-05-15T18:29:25.224Z,5.03
2023-05-15T18:32:14.252Z,4.75
2023-05-15T18:35:02.631Z,3.35
2023-05-15T18:37:50.492Z,4.15
2023-05-15T18:40:38.229Z,4.05
2023-05-15T18:43:27.305Z,3.83
2023-05-15T18:46:15.197Z,3.65
2023-05-15T18:49:03.140Z,3.22
2023-05-15T18:51:50.860Z,4.85
2023-05-15T18:54:39.436Z,3.60
2023-05-15T18:57:27.243Z,7.55
2023-05-15T19:00:26.639Z,8.73
2023-05-15T19:03:25.854Z,10.07
2023-05-15T19:06:19.579Z,5.97
2023-05-15T19:09:07.158Z,4.13
2023-05-15T19:11:54.630Z,4.05
2023-05-15T19:14:41.997Z,3.80
2023-05-15T19:17:30.988Z,3.42
2023-05-15T19:20:18.932Z,4.15
2023-05-15T19:23:08.688Z,5.45
2023-05-15T19:25:56.386Z,5.25
2023-05-15T19:28:44.117Z,5.60
2023-05-15T19:31:32.536Z,4.00
2023-05-15T19:34:21.483Z,4.57
2023-05-15T19:37:09.109Z,4.68
2023-05-15T19:39:57.094Z,4.15
2023-05-15T19:42:44.557Z,4.78
2023-05-15T19:45:31.975Z,8.02
2023-05-15T19:48:19.454Z,12.25
2023-05-15T19:51:08.360Z,15.80
2023-05-15T19:53:56.654Z,14.77
2023-05-15T19:56:44.570Z,12.32
2023-05-15T19:59:32.282Z,7.32
2023-05-15T20:05:08.509Z,7.43
2023-05-15T20:07:58.280Z,6.63
2023-05-15T20:10:51.821Z,5.30
2023-05-15T20:13:39.550Z,5.72
2023-05-15T20:16:27.050Z,5.10
2023-05-15T20:19:16.928Z,4.53
2023-05-15T20:22:05.097Z,6.15
2023-05-15T20:24:54.421Z,6.38
2023-05-15T20:27:42.724Z,6.32
2023-05-15T20:30:30.524Z,6.43
2023-05-15T20:33:17.990Z,5.68
2023-05-15T20:36:06.036Z,5.80
2023-05-15T20:38:54.949Z,5.55
2023-05-15T20:41:43.793Z,5.05
2023-05-15T20:44:31.898Z,4.45
2023-05-15T20:47:19.714Z,4.72
2023-05-15T20:50:08.759Z,4.55
2023-05-15T20:52:56.454Z,4.22
2023-05-15T20:55:43.985Z,4.40
2023-05-15T20:58:33.228Z,5.82
2023-05-15T21:01:21.077Z,4.88
2023-05-15T21:04:08.789Z,4.70
2023-05-15T21:06:56.785Z,5.07
2023-05-15T21:09:44.353Z,5.43
2023-05-15T21:12:34.129Z,5.95
2023-05-15T21:15:22.843Z,4.93
2023-05-15T21:18:10.351Z,4.45
2023-05-15T21:20:57.982Z,4.72
2023-05-15T21:23:45.937Z,5.60
2023-05-15T21:26:33.500Z,4.40
2023-05-15T21:29:21.079Z,4.70
2023-05-15T21:32:10.269Z,4.53
2023-05-15T21:34:58.094Z,3.78
2023-05-15T21:37:46.324Z,4.70
2023-05-15T21:40:34.664Z,4.60
2023-05-15T21:43:22.499Z,3.90
2023-05-15T21:46:10.112Z,5.60
2023-05-15T21:49:00.184Z,4.25
2023-05-15T21:51:47.703Z,5.18
2023-05-15T21:54:35.133Z,5.95
2023-05-15T21:57:22.694Z,6.40
2023-05-15T22:00:13.592Z,6.85
2023-05-15T22:03:01.414Z,8.00
2023-05-15T22:05:51.653Z,8.30
2023-05-15T22:08:39.095Z,7.85
2023-05-15T22:11:26.990Z,8.02
2023-05-15T22:14:14.629Z,6.60
2023-05-15T22:17:02.154Z,6.45
2023-05-15T22:19:50.387Z,5.88
2023-05-15T22:22:41.137Z,5.32
2023-05-15T22:25:28.970Z,5.65
2023-05-15T22:28:17.341Z,6.03
2023-05-15T22:31:05.442Z,6.10
2023-05-15T22:33:53.155Z,6.22
2023-05-15T22:36:40.909Z,6.47
2023-05-15T22:39:30.244Z,6.88
2023-05-15T22:42:18.463Z,6.30
2023-05-15T22:45:07.156Z,6.57
2023-05-15T22:47:54.859Z,6.05
2023-05-15T22:50:43.657Z,6.63
2023-05-15T22:53:31.747Z,6.57
2023-05-15T22:56:21.332Z,7.10
2023-05-15T22:59:08.986Z,6.13
2023-05-15T23:01:56.447Z,6.00
2023-05-15T23:04:44.229Z,6.00
2023-05-15T23:07:32.107Z,7.15
2023-05-15T23:10:19.647Z,5.90
2023-05-15T23:13:08.659Z,5.68
2023-05-15T23:15:56.610Z,5.90
2023-05-15T23:19:09.545Z,5.30
2023-05-15T23:24:45.012Z,5.45
2023-05-15T23:27:32.718Z,5.70
2023-05-15T23:30:22.053Z,5.18
2023-05-15T23:33:10.206Z,5.60
2023-05-15T23:35:57.681Z,6.78
2023-05-15T23:38:45.628Z,5.97
2023-05-15T23:41:33.458Z,5.75
2023-05-15T23:44:23.470Z,6.88
2023-05-15T23:50:16.601Z,5.82
2023-05-15T23:53:04.886Z,5.38
2023-05-15T23:55:52.478Z,5.95
2023-05-15T23:58:40.154Z,5.72
